Time;durP1;ratioP1;P1;durP2;ratioP2;P2;SDS_P1;SDS_P2;PMS_P1;PMS_P2;Temp;Humidity;BMP_temperature;BMP_pressure;BME280_temperature;BME280_humidity;BME280_pressure;Samples;Min_cycle;Max_cycle;Signal;HPM_P1;HPM_P2
2022/09/11 00:01:08;;;;;;;9.30;3.40;;;;;;;25.31;73.72;99993.50;5046815;28;20039;-75
2022/09/11 00:03:35;;;;;;;7.10;3.10;;;;;;;25.27;73.79;99985.72;5050359;28;20532;-81
2022/09/11 00:06:02;;;;;;;7.72;3.38;;;;;;;25.24;73.65;99996.41;5027474;28;20083;-78
2022/09/11 00:08:30;;;;;;;7.05;2.95;;;;;;;25.15;73.84;99987.00;5038094;28;20033;-79
2022/09/11 00:11:21;;;;;;;6.95;3.05;;;;;;;25.20;73.87;99985.91;5045357;28;20120;-81
2022/09/11 00:13:49;;;;;;;5.88;3.20;;;;;;;25.35;73.38;99997.78;5045125;28;20065;-82
2022/09/11 00:16:37;;;;;;;7.35;3.10;;;;;;;25.30;73.60;99989.13;5049926;28;20112;-80
2022/09/11 00:19:10;;;;;;;9.95;3.47;;;;;;;25.33;73.09;99999.63;5032260;28;20535;-85
2022/09/11 00:21:36;;;;;;;7.25;3.33;;;;;;;25.20;73.06;99963.94;5008272;28;20041;-85
2022/09/11 00:24:02;;;;;;;8.60;3.80;;;;;;;25.33;72.85;99996.09;4991845;28;20037;-85
2022/09/11 00:26:27;;;;;;;9.85;3.53;;;;;;;24.97;73.85;99965.53;5008272;28;20040;-83
2022/09/11 00:28:54;;;;;;;7.95;3.17;;;;;;;24.94;74.04;99984.09;4969144;28;20047;-85
2022/09/11 00:31:23;;;;;;;8.60;3.28;;;;;;;24.87;74.29;99979.91;4968884;28;20122;-85
2022/09/11 00:33:50;;;;;;;7.50;3.72;;;;;;;24.68;74.53;99966.38;4969177;28;20543;-85
2022/09/11 00:36:20;;;;;;;6.50;3.13;;;;;;;24.78;74.95;99993.38;4969120;28;20505;-82
2022/09/11 00:38:47;;;;;;;9.65;3.58;;;;;;;24.69;75.57;99986.59;4968813;28;20058;-84
2022/09/11 00:41:15;;;;;;;7.43;3.70;;;;;;;24.58;76.19;99984.22;4968991;28;20066;-82
2022/09/11 00:43:58;;;;;;;7.43;3.90;;;;;;;24.57;76.21;99981.66;4952650;28;20049;-86
2022/09/11 00:46:36;;;;;;;10.57;4.00;;;;;;;24.60;75.87;99984.19;4968838;28;20745;-83
2022/09/11 00:49:12;;;;;;;7.75;4.45;;;;;;;24.60;75.46;99979.78;4949561;29;20051;-83
2022/09/11 00:51:40;;;;;;;9.27;4.55;;;;;;;24.40;75.82;99948.69;4922109;28;20038;-85
2022/09/11 00:54:11;;;;;;;9.77;4.75;;;;;;;24.50;75.67;99960.72;4968910;28;20046;-83
2022/09/11 00:56:40;;;;;;;8.30;4.13;;;;;;;24.43;75.38;99947.75;4953101;28;20035;-85
2022/09/11 00:59:06;;;;;;;9.10;4.80;;;;;;;24.62;74.98;99977.94;4959736;28;20073;-82
2022/09/11 01:01:32;;;;;;;7.90;4.10;;;;;;;24.65;74.32;99975.25;5007768;28;20144;-85
2022/09/11 01:04:02;;;;;;;9.70;4.20;;;;;;;24.66;74.15;99978.75;5008111;28;20580;-84
2022/09/11 01:06:28;;;;;;;7.35;4.20;;;;;;;24.55;73.56;99953.53;4990971;28;20045;-85
2022/09/11 01:08:53;;;;;;;9.70;4.75;;;;;;;24.73;73.75;99990.88;5007772;28;20065;-85
2022/09/11 01:11:54;;;;;;;10.85;4.25;;;;;;;24.69;73.36;99976.91;4994022;28;20056;-85
2022/09/11 01:14:22;;;;;;;9.00;4.80;;;;;;;24.71;73.16;99988.28;4949706;29;20425;-84
2022/09/11 01:17:04;;;;;;;9.57;4.97;;;;;;;24.49;73.48;99979.22;4933621;29;20043;-86
2022/09/11 01:20:03;;;;;;;12.68;5.78;;;;;;;24.13;74.41;99952.97;4949451;29;20514;-87
2022/09/11 01:22:57;;;;;;;13.23;8.35;;;;;;;24.08;75.52;99989.16;4936839;29;20031;-83
2022/09/11 01:25:38;;;;;;;16.48;12.63;;;;;;;23.89;76.09;99979.06;4952934;29;20039;-83
2022/09/11 01:28:12;;;;;;;24.10;17.73;;;;;;;23.94;76.98;99985.09;4923942;29;20043;-85
2022/09/11 01:30:46;;;;;;;24.45;16.80;;;;;;;23.94;76.80;99979.84;4953115;29;20134;-82
2022/09/11 01:33:27;;;;;;;22.90;14.13;;;;;;;24.06;74.48;99987.44;4937028;29;20437;-87
2022/09/11 01:36:07;;;;;;;25.73;12.02;;;;;;;24.03;75.23;99986.63;4936513;29;20028;-83
2022/09/11 01:38:41;;;;;;;22.00;15.55;;;;;;;24.00;75.92;99984.94;4952676;29;20059;-85
2022/09/11 01:41:39;;;;;;;21.55;14.15;;;;;;;23.99;76.33;99966.50;4952990;29;20053;-88
2022/09/11 01:44:20;;;;;;;17.60;13.35;;;;;;;23.99;76.40;99970.03;4952648;29;20050;-80
2022/09/11 01:46:48;;;;;;;12.55;7.90;;;;;;;24.01;74.81;99968.22;4952584;29;20429;-81
2022/09/11 01:49:16;;;;;;;14.98;6.72;;;;;;;23.96;73.58;99975.38;4952945;29;20147;-82
2022/09/11 01:51:42;;;;;;;9.57;4.60;;;;;;;24.05;72.41;99975.13;5011581;28;20037;-81
2022/09/11 01:54:16;;;;;;;11.23;6.50;;;;;;;24.03;73.97;99974.31;5031773;28;20047;-82
2022/09/11 01:56:47;;;;;;;13.57;6.43;;;;;;;23.88;74.96;99956.25;5033196;28;20083;-81
2022/09/11 01:59:16;;;;;;;11.48;5.32;;;;;;;23.84;74.65;99966.00;5048774;28;20748;-81
2022/09/11 02:01:49;;;;;;;10.90;5.50;;;;;;;23.65;73.59;99960.34;5033084;28;20037;-78
2022/09/11 02:04:23;;;;;;;7.18;5.32;;;;;;;23.61;74.22;99963.94;5032981;28;20053;-78
2022/09/11 02:06:58;;;;;;;16.98;5.07;;;;;;;23.55;74.68;99964.09;5032931;28;20408;-80
2022/09/11 02:09:30;;;;;;;12.60;6.40;;;;;;;23.61;74.81;99969.19;5048201;28;20018;-80
2022/09/11 02:12:01;;;;;;;9.45;6.22;;;;;;;23.65;74.82;99965.59;5031772;28;20037;-78
2022/09/11 02:14:52;;;;;;;18.05;6.72;;;;;;;23.65;74.46;99962.09;5033077;28;20033;-79
2022/09/11 02:17:53;;;;;;;10.65;6.97;;;;;;;23.69;74.97;99961.97;5032999;28;20060;-82
2022/09/11 02:20:19;;;;;;;10.07;6.88;;;;;;;23.69;74.66;99959.34;5033080;28;20033;-81
2022/09/11 02:22:45;;;;;;;10.57;6.90;;;;;;;23.66;74.82;99967.31;5032824;28;20124;-79
2022/09/11 02:25:12;;;;;;;11.48;6.53;;;;;;;23.62;74.90;99959.53;5032654;28;20507;-80
2022/09/11 02:27:38;;;;;;;14.63;7.07;;;;;;;23.56;74.82;99957.91;5033009;28;20112;-86
2022/09/11 02:30:04;;;;;;;13.90;7.45;;;;;;;23.62;73.97;99951.66;5032291;28;20653;-84
2022/09/11 02:32:31;;;;;;;10.15;6.70;;;;;;;23.64;75.25;99950.69;5032052;28;20411;-82
2022/09/11 02:34:58;;;;;;;9.70;6.68;;;;;;;23.64;74.92;99955.97;5013675;28;20076;-84
2022/09/11 02:37:44;;;;;;;11.02;7.32;;;;;;;23.56;74.57;99965.81;5032637;28;20030;-81
2022/09/11 02:40:16;;;;;;;12.45;7.28;;;;;;;23.54;75.22;99962.34;5047489;28;20563;-83
2022/09/11 02:43:00;;;;;;;12.48;8.10;;;;;;;23.54;75.10;99957.06;5032602;28;20045;-84
2022/09/11 02:45:35;;;;;;;10.23;7.75;;;;;;;23.52;75.50;99965.03;5047673;28;20026;-85
2022/09/11 02:48:25;;;;;;;12.05;8.10;;;;;;;23.50;76.06;99966.84;5047901;28;20025;-85
2022/09/11 02:51:28;;;;;;;11.40;8.25;;;;;;;23.56;76.18;99966.72;5047533;28;20040;-83
2022/09/11 02:54:29;;;;;;;14.27;8.27;;;;;;;23.46;76.62;99964.31;5032367;28;20104;-82
2022/09/11 02:57:09;;;;;;;13.93;8.38;;;;;;;23.39;76.85;99953.94;5047436;28;20058;-81
2022/09/11 03:00:13;;;;;;;12.50;8.10;;;;;;;23.23;76.30;99960.47;5032391;28;20029;-81
2022/09/11 03:02:42;;;;;;;11.45;7.88;;;;;;;23.11;76.11;99951.06;4970950;28;20038;-83
2022/09/11 03:05:08;;;;;;;15.13;7.27;;;;;;;23.02;75.82;99931.06;4954705;28;20038;-84
2022/09/11 03:07:34;;;;;;;13.05;7.72;;;;;;;23.29;75.42;99957.72;4954299;28;20039;-83
2022/09/11 03:09:59;;;;;;;12.43;7.43;;;;;;;23.36;76.06;99972.44;4954582;28;20426;-83
2022/09/11 03:12:28;;;;;;;9.68;6.53;;;;;;;23.32;76.70;99977.84;4971022;28;20413;-82
2022/09/11 03:14:55;;;;;;;10.53;5.83;;;;;;;23.27;76.39;99973.53;4951207;29;20058;-82
2022/09/11 03:17:20;;;;;;;12.63;5.95;;;;;;;23.27;76.36;99977.94;4951406;29;20326;-83
2022/09/11 03:20:06;;;;;;;9.45;5.68;;;;;;;23.23;76.58;99981.56;4951284;29;20561;-82
2022/09/11 03:22:31;;;;;;;10.38;5.75;;;;;;;23.10;77.37;99994.97;4913038;29;20048;-81
2022/09/11 03:24:57;;;;;;;10.23;5.97;;;;;;;22.67;78.92;99989.72;4912710;29;20040;-82
2022/09/11 03:27:22;;;;;;;9.82;5.82;;;;;;;22.49;80.61;99996.25;4912930;29;20060;-82
2022/09/11 03:29:48;;;;;;;11.82;5.90;;;;;;;22.41;81.28;99999.91;4912844;29;20044;-82
2022/09/11 03:32:14;;;;;;;9.82;6.22;;;;;;;22.35;81.67;99994.72;4913280;29;20602;-83
2022/09/11 03:34:40;;;;;;;9.77;6.25;;;;;;;22.46;81.11;99995.41;4931474;29;20095;-84
2022/09/11 03:37:06;;;;;;;11.48;6.35;;;;;;;22.58;80.36;100006.56;4931467;29;20031;-80
2022/09/11 03:39:31;;;;;;;11.45;6.85;;;;;;;22.71;80.03;100010.69;4931536;29;20091;-81
2022/09/11 03:41:57;;;;;;;10.40;6.82;;;;;;;22.71;80.01;100013.34;4931494;29;20083;-81
2022/09/11 03:44:22;;;;;;;13.07;7.28;;;;;;;22.61;79.98;100002.13;4931174;29;20042;-80
2022/09/11 03:46:48;;;;;;;9.88;7.03;;;;;;;22.74;80.38;100017.66;4964871;28;20046;-81
2022/09/11 03:49:14;;;;;;;14.88;7.32;;;;;;;22.66;80.67;100014.34;4969668;28;20584;-79
2022/09/11 03:51:40;;;;;;;15.75;8.13;;;;;;;22.70;79.08;100027.38;4970066;28;20027;-80
2022/09/11 03:54:06;;;;;;;9.82;7.32;;;;;;;22.54;79.17;100025.97;5000418;28;20042;-83
2022/09/11 03:56:32;;;;;;;13.57;7.85;;;;;;;22.56;79.47;100030.28;5005352;28;20511;-86
2022/09/11 03:59:01;;;;;;;13.00;8.43;;;;;;;22.63;79.55;100025.78;5003713;28;20034;-81
2022/09/11 04:01:27;;;;;;;10.13;8.10;;;;;;;22.61;80.33;100023.16;5011077;28;20033;-83
2022/09/11 04:03:54;;;;;;;12.82;8.52;;;;;;;22.52;80.67;100011.97;5011089;28;20033;-81
2022/09/11 04:06:20;;;;;;;12.48;9.07;;;;;;;22.42;81.08;100019.19;5009797;28;20377;-80
2022/09/11 04:08:45;;;;;;;11.18;9.20;;;;;;;22.36;81.95;100014.88;5026116;28;20025;-80
2022/09/11 04:11:11;;;;;;;14.05;9.05;;;;;;;22.30;82.61;100010.56;4995690;28;20032;-81
2022/09/11 04:13:39;;;;;;;15.63;9.82;;;;;;;22.41;82.61;100036.72;5011067;28;20025;-79
2022/09/11 04:16:12;;;;;;;14.55;9.23;;;;;;;22.31;83.64;100035.13;4988275;28;20515;-79
2022/09/11 04:18:39;;;;;;;19.27;9.05;;;;;;;22.26;84.91;100031.72;4973844;28;20134;-80
2022/09/11 04:21:10;;;;;;;19.30;9.40;;;;;;;22.26;84.94;100027.31;4971689;28;20501;-81
2022/09/11 04:23:36;;;;;;;18.33;9.40;;;;;;;22.32;84.82;100021.09;4972417;28;20501;-84
2022/09/11 04:26:11;;;;;;;14.13;9.30;;;;;;;22.32;84.78;100007.06;4988611;28;20491;-80
2022/09/11 04:28:37;;;;;;;12.90;8.60;;;;;;;22.22;85.17;99998.47;4988488;28;20544;-82
2022/09/11 04:31:03;;;;;;;11.82;8.68;;;;;;;22.32;85.33;100012.31;4988219;28;20026;-86
2022/09/11 04:33:29;;;;;;;13.50;8.43;;;;;;;22.31;85.63;100011.47;4988327;28;20046;-82
2022/09/11 04:35:54;;;;;;;14.63;8.30;;;;;;;22.46;86.20;100039.25;4988243;28;20036;-82
2022/09/11 04:38:21;;;;;;;16.25;8.38;;;;;;;22.52;86.14;100048.78;4973419;28;20477;-87
2022/09/11 04:40:48;;;;;;;13.38;8.15;;;;;;;22.38;86.54;100026.28;5007880;28;20045;-82
2022/09/11 04:43:14;;;;;;;19.45;8.55;;;;;;;22.23;86.42;100022.13;4991194;28;20040;-80
2022/09/11 04:45:40;;;;;;;17.83;9.57;;;;;;;22.30;86.82;100050.03;5008362;28;20129;-81
2022/09/11 04:48:06;;;;;;;16.90;9.75;;;;;;;22.33;86.89;100049.13;5007804;28;20108;-80
2022/09/11 04:50:31;;;;;;;17.08;10.55;;;;;;;22.29;86.82;100039.53;5007911;28;20104;-80
2022/09/11 04:52:57;;;;;;;12.60;9.55;;;;;;;22.34;86.57;100044.72;4999084;28;20033;-80
2022/09/11 04:55:24;;;;;;;12.38;9.27;;;;;;;22.29;86.23;100042.16;5031558;28;20033;-80
2022/09/11 04:57:49;;;;;;;16.90;10.43;;;;;;;22.29;86.17;100031.66;5049054;28;20053;-81
2022/09/11 05:00:16;;;;;;;15.07;10.60;;;;;;;22.33;85.36;100043.88;5034285;28;20056;-81
2022/09/11 05:02:41;;;;;;;14.13;9.98;;;;;;;22.45;85.17;100048.03;5032774;28;20052;-79
2022/09/11 05:05:08;;;;;;;16.92;11.63;;;;;;;22.40;85.08;100039.38;5049151;28;20468;-81
2022/09/11 05:07:34;;;;;;;16.00;11.20;;;;;;;22.46;85.33;100049.78;5032810;28;20109;-79
2022/09/11 05:10:00;;;;;;;15.40;11.32;;;;;;;22.36;85.17;100021.91;5026425;28;20073;-81
2022/09/11 05:12:27;;;;;;;16.90;11.25;;;;;;;22.49;84.59;100038.34;5025786;28;20022;-80
2022/09/11 05:14:52;;;;;;;21.77;11.82;;;;;;;22.52;84.48;100043.53;5033544;28;20040;-80
2022/09/11 05:17:18;;;;;;;15.98;10.82;;;;;;;22.44;83.54;100030.53;5034185;28;20033;-79
2022/09/11 05:19:43;;;;;;;13.60;10.88;;;;;;;22.48;84.36;100037.47;5012479;28;20454;-80
2022/09/11 05:22:09;;;;;;;14.52;10.95;;;;;;;22.58;84.72;100053.94;5020532;28;20045;-81
2022/09/11 05:24:34;;;;;;;17.25;11.10;;;;;;;22.61;85.87;100040.72;5012395;28;20022;-80
2022/09/11 05:27:00;;;;;;;19.38;10.73;;;;;;;22.57;86.82;100045.19;5013278;28;20045;-82
2022/09/11 05:29:28;;;;;;;15.02;10.38;;;;;;;22.68;87.06;100050.25;5013516;28;20022;-83
2022/09/11 05:32:00;;;;;;;16.13;10.85;;;;;;;22.73;87.24;100037.84;5013044;28;20026;-84
2022/09/11 05:34:29;;;;;;;12.45;10.35;;;;;;;22.90;87.38;100049.78;5012107;28;20029;-84
2022/09/11 05:36:57;;;;;;;13.40;10.30;;;;;;;22.96;86.68;100041.78;5011533;28;20463;-80
2022/09/11 05:39:23;;;;;;;14.70;11.15;;;;;;;22.95;87.13;100037.41;5011566;28;20045;-84
2022/09/11 05:41:51;;;;;;;15.13;10.82;;;;;;;22.98;87.29;100026.81;5012699;28;20108;-82
2022/09/11 05:44:16;;;;;;;13.25;10.20;;;;;;;23.03;87.33;100030.22;5012939;28;20029;-79
2022/09/11 05:46:42;;;;;;;18.17;11.20;;;;;;;23.01;87.25;100018.84;5012888;28;20030;-82
2022/09/11 05:49:07;;;;;;;14.55;11.18;;;;;;;22.98;87.64;100029.47;5013179;28;20402;-81
2022/09/11 05:51:36;;;;;;;15.68;11.07;;;;;;;23.13;87.59;100038.78;5012901;28;20026;-84
2022/09/11 05:54:02;;;;;;;15.37;10.83;;;;;;;23.15;87.95;100033.47;5013128;28;20463;-84
2022/09/11 05:56:28;;;;;;;13.02;10.88;;;;;;;23.26;87.42;100036.78;5012956;28;20308;-84
2022/09/11 05:58:53;;;;;;;13.70;10.25;;;;;;;23.28;86.95;100032.34;5013126;28;20053;-84
2022/09/11 06:01:25;;;;;;;14.13;10.32;;;;;;;22.94;86.70;99956.69;5012577;28;20527;-84
2022/09/11 06:03:51;;;;;;;19.63;10.60;;;;;;;23.10;86.19;99979.16;5011720;28;20115;-82
2022/09/11 06:06:18;;;;;;;12.60;10.10;;;;;;;23.48;86.21;100033.63;5012157;28;20069;-84
2022/09/11 06:08:46;;;;;;;17.83;10.75;;;;;;;23.51;85.93;100033.56;5012791;28;20490;-82
2022/09/11 06:11:13;;;;;;;14.18;11.48;;;;;;;23.20;85.91;99969.31;5017625;28;20111;-84
2022/09/11 06:13:42;;;;;;;15.38;10.88;;;;;;;23.16;88.50;100028.22;5032784;28;20021;-83
2022/09/11 06:16:16;;;;;;;15.02;11.43;;;;;;;22.93;88.40;99999.75;5031309;28;20163;-81
2022/09/11 06:18:41;;;;;;;13.20;9.90;;;;;;;23.21;87.20;100025.47;5032456;28;20025;-76
2022/09/11 06:21:10;;;;;;;14.38;10.13;;;;;;;23.24;87.29;100028.91;5032170;28;20044;-81
2022/09/11 06:23:38;;;;;;;14.02;10.35;;;;;;;23.38;86.91;100025.97;5032571;28;20021;-78
2022/09/11 06:26:08;;;;;;;14.32;10.55;;;;;;;23.50;85.99;100029.19;5032663;28;20038;-76
2022/09/11 06:28:35;;;;;;;11.70;10.60;;;;;;;23.58;84.60;100033.38;5032339;28;20503;-81
2022/09/11 06:31:01;;;;;;;13.85;9.98;;;;;;;23.58;84.26;100011.47;5032552;28;20072;-78
2022/09/11 06:33:38;;;;;;;18.90;9.98;;;;;;;23.80;83.20;100035.53;5032166;28;20026;-76
2022/09/11 06:36:06;;;;;;;13.77;9.98;;;;;;;23.85;82.18;100025.72;5032430;28;20406;-75
2022/09/11 06:38:32;;;;;;;14.80;10.50;;;;;;;23.86;81.79;100035.38;5026438;28;20046;-80
2022/09/11 06:41:02;;;;;;;16.90;9.80;;;;;;;23.85;82.67;100033.63;5012515;28;20041;-86
2022/09/11 06:43:28;;;;;;;14.73;10.15;;;;;;;23.89;82.07;100024.72;5012278;28;20481;-80
2022/09/11 06:45:54;;;;;;;14.02;10.20;;;;;;;23.69;82.30;100019.97;5012311;28;20132;-85
2022/09/11 06:48:19;;;;;;;13.20;9.25;;;;;;;24.04;80.55;100041.97;5010740;28;20116;-76
2022/09/11 06:50:45;;;;;;;11.68;8.70;;;;;;;24.03;78.57;100013.84;5012263;28;20481;-77
2022/09/11 06:53:11;;;;;;;16.58;9.52;;;;;;;24.34;76.95;100028.88;5012036;28;20648;-74
2022/09/11 06:55:40;;;;;;;21.95;9.80;;;;;;;24.54;75.96;100046.78;5011541;28;20033;-80
2022/09/11 06:58:07;;;;;;;15.53;9.70;;;;;;;24.64;75.61;100036.84;5012373;28;20032;-76
2022/09/11 07:00:35;;;;;;;18.08;8.93;;;;;;;24.52;74.79;100005.53;5011929;28;20029;-78
2022/09/11 07:03:01;;;;;;;15.90;8.98;;;;;;;24.67;74.05;100031.53;5011967;28;20397;-78
2022/09/11 07:05:27;;;;;;;18.13;8.73;;;;;;;24.79;72.81;100035.56;5012275;28;20036;-77
2022/09/11 07:07:54;;;;;;;16.65;9.73;;;;;;;24.98;71.99;100040.31;5011932;28;20034;-77
2022/09/11 07:10:21;;;;;;;18.25;9.65;;;;;;;25.03;74.55;100041.91;5001882;28;20484;-77
2022/09/11 07:12:47;;;;;;;22.63;10.23;;;;;;;25.03;74.24;100047.19;5008176;28;20026;-75
2022/09/11 07:15:12;;;;;;;24.30;10.35;;;;;;;24.94;72.17;100017.56;5007229;28;20554;-77
2022/09/11 07:17:38;;;;;;;43.40;12.15;;;;;;;25.16;69.57;100054.72;5011377;28;20132;-78
2022/09/11 07:20:07;;;;;;;40.03;11.13;;;;;;;25.34;68.80;100046.25;4997952;28;20092;-80
2022/09/11 07:22:35;;;;;;;40.42;11.18;;;;;;;25.50;68.12;100043.16;5011439;28;20033;-77
2022/09/11 07:25:01;;;;;;;38.90;11.43;;;;;;;25.65;65.89;100055.03;5011892;28;20172;-77
2022/09/11 07:27:28;;;;;;;41.67;11.18;;;;;;;25.79;65.62;100058.06;5011613;28;20468;-76
2022/09/11 07:29:54;;;;;;;33.13;10.27;;;;;;;25.96;63.41;100049.59;5011540;28;20108;-75
2022/09/11 07:32:20;;;;;;;28.38;10.98;;;;;;;26.04;64.19;100064.34;5011258;28;20550;-77
2022/09/11 07:34:46;;;;;;;28.38;10.15;;;;;;;26.02;62.79;100042.34;5011373;28;20030;-78
2022/09/11 07:37:12;;;;;;;25.05;9.07;;;;;;;26.11;61.99;100039.44;5011853;28;20065;-77
2022/09/11 07:39:38;;;;;;;24.67;10.38;;;;;;;26.28;63.35;100058.25;5036062;28;20533;-80
2022/09/11 07:42:06;;;;;;;32.08;10.98;;;;;;;26.42;61.08;100064.84;5050783;28;20029;-77
2022/09/11 07:44:32;;;;;;;25.27;10.82;;;;;;;26.36;61.31;100034.16;5050606;28;20422;-77
2022/09/11 07:46:57;;;;;;;22.65;9.10;;;;;;;26.37;60.95;100048.22;5050531;28;20021;-77
2022/09/11 07:49:22;;;;;;;29.63;10.48;;;;;;;26.33;60.05;100034.25;5050641;28;20033;-77
2022/09/11 07:51:48;;;;;;;30.30;10.70;;;;;;;26.52;61.11;100054.75;5050710;28;20032;-76
2022/09/11 07:54:13;;;;;;;30.38;10.15;;;;;;;26.47;59.01;100018.75;5050859;28;20029;-77
2022/09/11 07:56:40;;;;;;;27.40;10.20;;;;;;;26.81;58.91;100045.78;5050458;28;20528;-76
2022/09/11 07:59:07;;;;;;;31.55;9.88;;;;;;;26.79;58.41;100052.91;5050109;28;20407;-78
2022/09/11 08:01:33;;;;;;;36.70;9.90;;;;;;;26.54;58.22;100031.75;5038334;28;20487;-80
2022/09/11 08:04:02;;;;;;;36.60;9.43;;;;;;;26.62;57.80;100056.19;5042178;28;20063;-78
2022/09/11 08:06:33;;;;;;;30.65;9.98;;;;;;;26.54;57.31;100037.91;5030228;28;20033;-78
2022/09/11 08:09:05;;;;;;;30.13;9.90;;;;;;;26.57;57.68;100044.91;5009453;28;20041;-77
2022/09/11 08:11:33;;;;;;;26.73;9.55;;;;;;;26.34;57.41;99982.19;5012425;28;20494;-79
2022/09/11 08:13:59;;;;;;;34.63;10.90;;;;;;;26.90;61.65;100045.44;5032024;28;20480;-76
2022/09/11 08:16:26;;;;;;;37.42;11.45;;;;;;;27.02;55.38;100048.56;5050312;28;20029;-81
2022/09/11 08:18:52;;;;;;;37.60;11.63;;;;;;;27.17;55.59;100047.13;4988459;28;20038;-77
2022/09/11 08:21:18;;;;;;;20.50;7.60;;;;;;;27.29;51.83;100020.97;4988253;28;20053;-79
2022/09/11 08:23:45;;;;;;;19.58;7.72;;;;;;;27.15;52.08;100007.41;4967588;28;20045;-73
2022/09/11 08:26:13;;;;;;;16.27;7.03;;;;;;;27.18;52.52;100028.50;4976553;28;20053;-79
2022/09/11 08:28:41;;;;;;;20.85;7.88;;;;;;;27.36;50.73;100020.75;4988471;28;20035;-79
2022/09/11 08:31:08;;;;;;;24.43;8.27;;;;;;;27.44;51.22;100023.94;4988159;28;20031;-83
2022/09/11 08:33:34;;;;;;;26.50;8.38;;;;;;;27.57;51.39;100022.53;4988559;28;20038;-78
2022/09/11 08:36:02;;;;;;;33.55;8.68;;;;;;;27.48;51.31;100020.28;4988436;28;20136;-79
2022/09/11 08:38:28;;;;;;;49.22;12.13;;;;;;;27.58;51.37;100021.63;4988124;28;20048;-78
2022/09/11 08:40:57;;;;;;;35.17;10.13;;;;;;;27.59;51.16;100015.41;4971643;28;20043;-78
2022/09/11 08:43:32;;;;;;;47.00;11.52;;;;;;;27.55;50.81;100013.81;4988464;28;20050;-78
2022/09/11 08:46:04;;;;;;;35.28;10.10;;;;;;;27.70;52.17;99990.22;4988290;28;20101;-78
2022/09/11 08:48:45;;;;;;;28.92;7.93;;;;;;;27.92;50.76;100001.63;4978021;28;20034;-76
2022/09/11 08:51:16;;;;;;;31.55;8.75;;;;;;;27.95;50.00;99994.47;5011045;28;20041;-76
2022/09/11 08:53:42;;;;;;;27.58;8.68;;;;;;;28.11;48.77;100003.53;5019424;28;20143;-75
2022/09/11 08:56:14;;;;;;;34.10;10.75;;;;;;;28.17;50.30;100000.59;5013552;28;20017;-72
2022/09/11 08:58:57;;;;;;;27.02;8.15;;;;;;;28.32;51.72;100000.88;5007889;28;20496;-76
2022/09/11 09:01:52;;;;;;;44.55;10.73;;;;;;;28.43;50.40;99995.94;5009785;28;20022;-76
2022/09/11 09:04:40;;;;;;;37.38;9.80;;;;;;;28.62;48.72;99993.28;5009951;28;20018;-76
2022/09/11 09:07:05;;;;;;;20.58;7.68;;;;;;;28.64;47.61;99985.28;5010115;28;20113;-76
2022/09/11 09:09:33;;;;;;;18.90;7.60;;;;;;;28.57;46.96;99958.13;5009570;28;20026;-76
2022/09/11 09:12:11;;;;;;;17.33;6.93;;;;;;;28.77;46.24;99970.50;5009615;28;20432;-76
2022/09/11 09:14:55;;;;;;;17.67;6.22;;;;;;;28.78;48.62;99969.56;5016466;28;20036;-75
2022/09/11 09:17:25;;;;;;;12.85;5.47;;;;;;;28.85;46.62;99967.50;5022039;28;20037;-77
2022/09/11 09:20:00;;;;;;;8.32;5.47;;;;;;;28.85;46.88;99959.53;5002273;28;20120;-78
2022/09/11 09:22:29;;;;;;;10.25;6.53;;;;;;;28.83;48.31;99934.81;4990179;28;20041;-78
2022/09/11 09:25:00;;;;;;;11.38;5.90;;;;;;;29.08;45.70;99957.56;4990051;28;20049;-81
2022/09/11 09:27:33;;;;;;;12.63;5.82;;;;;;;28.97;45.19;99950.09;4989691;28;20404;-80
2022/09/11 09:30:03;;;;;;;20.05;7.00;;;;;;;29.09;45.47;99954.81;5004688;28;20031;-81
2022/09/11 09:32:40;;;;;;;13.50;6.30;;;;;;;29.20;45.13;99964.94;4989689;28;20491;-80
2022/09/11 09:35:15;;;;;;;10.90;6.22;;;;;;;29.23;46.12;99961.28;4992916;28;20022;-79
2022/09/11 09:37:41;;;;;;;11.80;5.80;;;;;;;29.15;46.42;99957.19;4992680;28;20026;-79
2022/09/11 09:40:29;;;;;;;11.68;6.38;;;;;;;28.95;47.13;99957.28;4988214;28;20060;-78
2022/09/11 09:43:19;;;;;;;10.70;6.47;;;;;;;28.69;49.25;99906.28;4989650;28;20042;-76
2022/09/11 09:45:50;;;;;;;12.18;6.00;;;;;;;28.76;49.18;99926.28;4990747;28;20269;-78
2022/09/11 09:48:17;;;;;;;10.82;6.00;;;;;;;28.88;48.17;99946.09;4990873;28;20451;-79
2022/09/11 09:50:43;;;;;;;13.30;7.43;;;;;;;28.67;48.90;99913.41;4991110;28;20433;-78
2022/09/11 09:53:11;;;;;;;12.13;7.03;;;;;;;28.91;48.16;99937.97;4990891;28;20042;-78
2022/09/11 09:55:41;;;;;;;11.57;5.60;;;;;;;28.95;45.50;99939.56;4990727;28;20034;-78
2022/09/11 09:58:06;;;;;;;9.23;5.82;;;;;;;28.93;45.38;99929.94;4990458;28;20547;-80
2022/09/11 10:00:36;;;;;;;12.20;5.80;;;;;;;28.47;45.61;99898.41;4990504;28;20113;-79
2022/09/11 10:03:17;;;;;;;11.93;5.80;;;;;;;28.42;46.39;99930.47;4990497;28;20074;-80
2022/09/11 10:05:43;;;;;;;11.75;6.40;;;;;;;28.49;46.37;99926.63;4990781;28;20464;-79
2022/09/11 10:08:30;;;;;;;10.70;5.30;;;;;;;28.49;45.76;99934.59;4990961;28;20125;-78
2022/09/11 10:11:00;;;;;;;14.52;5.97;;;;;;;28.56;45.99;99929.84;4992501;28;20030;-78
2022/09/11 10:13:28;;;;;;;7.07;5.07;;;;;;;28.66;44.48;99898.41;4991292;28;20038;-80
2022/09/11 10:15:58;;;;;;;11.48;5.10;;;;;;;28.68;43.62;99912.50;4992953;28;20137;-76
2022/09/11 10:18:36;;;;;;;14.38;5.25;;;;;;;28.97;42.94;99918.22;4992702;28;20030;-77
2022/09/11 10:21:10;;;;;;;12.45;5.60;;;;;;;29.23;42.49;99905.44;4992773;28;20685;-77
2022/09/11 10:23:50;;;;;;;8.75;5.20;;;;;;;29.54;42.40;99926.91;4992942;28;20037;-79
2022/09/11 10:26:17;;;;;;;;;;;;;;;29.83;42.02;99919.25;4993643;28;20119;-77
2022/09/11 10:28:45;;;;;;;10.73;5.30;;;;;;;29.99;41.11;99905.16;4992703;28;19956;-75
2022/09/11 10:31:15;;;;;;;10.10;5.47;;;;;;;30.39;40.59;99912.78;4994333;28;20018;-73
2022/09/11 10:33:47;;;;;;;8.68;4.88;;;;;;;30.53;40.39;99909.41;4992701;28;20033;-71
2022/09/11 10:36:21;;;;;;;7.25;4.78;;;;;;;30.42;39.81;99904.63;4992157;28;20042;-70
2022/09/11 10:38:48;;;;;;;9.82;4.93;;;;;;;30.52;39.82;99879.25;5006125;28;20074;-74
2022/09/11 10:41:13;;;;;;;11.13;5.75;;;;;;;30.63;41.63;99899.94;4992506;28;20382;-71
2022/09/11 10:43:42;;;;;;;8.18;5.00;;;;;;;30.94;40.33;99901.75;4992181;28;20072;-72
2022/09/11 10:46:32;;;;;;;7.33;5.13;;;;;;;30.84;39.50;99887.22;5022530;28;20385;-77
2022/09/11 10:49:05;;;;;;;6.82;4.38;;;;;;;30.39;40.03;99860.38;4992653;28;20351;-71
2022/09/11 10:51:38;;;;;;;7.38;4.72;;;;;;;30.65;40.26;99885.59;5002354;28;20030;-74
2022/09/11 10:54:19;;;;;;;9.23;5.25;;;;;;;30.87;38.82;99892.38;4999756;28;20041;-76
2022/09/11 10:57:12;;;;;;;13.93;4.72;;;;;;;30.78;38.48;99882.22;5030884;28;20025;-76
2022/09/11 10:59:40;;;;;;;9.43;4.80;;;;;;;30.69;39.23;99856.97;5031584;28;20068;-72
2022/09/11 11:02:29;;;;;;;8.02;4.82;;;;;;;30.93;38.37;99878.72;5001117;28;20026;-75
2022/09/11 11:04:59;;;;;;;8.23;5.00;;;;;;;31.19;37.51;99878.16;4993457;28;20065;-74
2022/09/11 11:07:39;;;;;;;7.38;4.88;;;;;;;31.14;37.11;99865.97;4998411;28;20061;-73
2022/09/11 11:10:04;;;;;;;9.88;4.97;;;;;;;31.10;38.29;99880.41;5018677;28;20053;-76
2022/09/11 11:12:54;;;;;;;12.82;5.15;;;;;;;31.31;38.91;99880.09;5029318;28;20483;-74
2022/09/11 11:15:37;;;;;;;9.10;5.40;;;;;;;31.59;40.90;99871.31;5017271;28;20022;-77
2022/09/11 11:18:22;;;;;;;8.50;4.60;;;;;;;31.87;36.48;99869.66;5020425;28;20091;-74
2022/09/11 11:21:06;;;;;;;8.70;5.47;;;;;;;32.03;39.27;99860.69;5031371;28;20041;-77
2022/09/11 11:23:32;;;;;;;7.13;5.03;;;;;;;31.80;38.59;99819.41;5020192;28;20037;-78
2022/09/11 11:26:28;;;;;;;10.23;4.90;;;;;;;32.31;38.19;99859.81;5027523;28;20029;-73
2022/09/11 11:29:15;;;;;;;7.25;4.78;;;;;;;32.36;36.66;99864.88;5030939;28;20056;-77
2022/09/11 11:32:30;;;;;;;7.43;4.55;;;;;;;32.10;35.47;99859.34;5029795;28;20537;-77
2022/09/11 11:35:27;;;;;;;7.00;4.50;;;;;;;31.68;37.13;99845.91;4988540;28;20042;-76
2022/09/11 11:38:02;;;;;;;9.35;4.90;;;;;;;31.29;36.96;99834.00;4949510;29;20056;-73
2022/09/11 11:40:35;;;;;;;8.43;5.20;;;;;;;31.34;40.78;99853.28;4950124;29;20086;-74